Time;durP1;ratioP1;P1;durP2;ratioP2;P2;SDS_P1;SDS_P2;PMS_P1;PMS_P2;Temp;Humidity;BMP_temperature;BMP_pressure;BME280_temperature;BME280_humidity;BME280_pressure;Samples;Min_cycle;Max_cycle;Signal;HPM_P1;HPM_P2
2021/03/03 00:01:04;;;;;;;2.80;0.70;;;;;;;2.28;48.56;98619.00;10667654;27;20111;-53
2021/03/03 00:06:06;;;;;;;3.08;0.93;;;;;;;2.23;48.50;98624.47;10670025;27;20142;-52
2021/03/03 00:11:09;;;;;;;4.32;0.68;;;;;;;2.26;47.93;98626.03;10669563;27;20053;-52
2021/03/03 00:16:10;;;;;;;0.95;0.50;;;;;;;2.16;47.54;98641.41;10670524;27;20070;-53
2021/03/03 00:21:12;;;;;;;2.40;0.90;;;;;;;2.01;47.30;98630.28;10670317;27;20055;-53
2021/03/03 00:26:15;;;;;;;1.88;0.40;;;;;;;1.94;47.56;98643.75;10672072;27;20138;-52
2021/03/03 00:31:17;;;;;;;2.80;0.80;;;;;;;1.85;47.02;98640.03;10672237;27;20047;-52
2021/03/03 00:36:18;;;;;;;1.65;0.52;;;;;;;1.70;47.02;98649.66;10671005;27;20046;-53
2021/03/03 00:41:21;;;;;;;1.95;0.47;;;;;;;1.58;46.69;98659.03;10670657;27;20050;-53
2021/03/03 00:46:22;;;;;;;2.10;0.60;;;;;;;1.49;45.92;98638.09;10671049;27;20038;-52
2021/03/03 00:51:25;;;;;;;2.67;0.70;;;;;;;1.34;45.98;98666.63;10671857;27;20219;-51
2021/03/03 00:56:28;;;;;;;6.03;1.25;;;;;;;1.22;45.57;98662.22;10644554;27;20108;-56
2021/03/03 01:01:31;;;;;;;1.88;0.50;;;;;;;1.17;45.59;98668.63;10650035;27;20125;-52
2021/03/03 01:06:33;;;;;;;1.23;0.52;;;;;;;1.15;45.47;98685.09;10673996;27;20045;-53
2021/03/03 01:11:36;;;;;;;2.92;0.55;;;;;;;1.08;45.27;98685.59;10652195;27;20103;-52
2021/03/03 01:16:38;;;;;;;3.72;0.95;;;;;;;1.06;45.29;98690.84;10672122;27;20070;-54
2021/03/03 01:21:46;;;;;;;1.13;0.40;;;;;;;1.06;45.12;98708.13;10652458;27;20055;-53
2021/03/03 01:26:48;;;;;;;0.65;0.40;;;;;;;0.99;45.57;98709.44;10669368;27;20094;-53
2021/03/03 01:31:50;;;;;;;3.63;0.68;;;;;;;0.94;45.68;98711.47;10669194;27;20439;-52
2021/03/03 01:36:51;;;;;;;3.20;1.13;;;;;;;0.93;45.24;98720.19;10673706;27;20463;-54
2021/03/03 01:41:54;;;;;;;1.33;0.50;;;;;;;0.91;45.28;98731.44;10669137;27;20364;-51
2021/03/03 01:46:56;;;;;;;2.57;0.63;;;;;;;0.92;45.41;98724.50;10668717;27;20475;-52
2021/03/03 01:51:58;;;;;;;1.63;0.60;;;;;;;0.94;45.47;98724.41;10664426;27;20164;-53
2021/03/03 01:57:01;;;;;;;1.58;0.63;;;;;;;0.98;45.62;98731.06;10626145;27;20046;-51
2021/03/03 02:02:04;;;;;;;2.00;0.73;;;;;;;0.93;45.32;98733.13;10651167;27;20054;-53
2021/03/03 02:07:12;;;;;;;1.15;0.55;;;;;;;0.86;45.61;98728.31;10669534;27;20043;-51
2021/03/03 02:12:19;;;;;;;1.08;0.43;;;;;;;0.85;46.23;98738.75;10668561;27;20048;-53
2021/03/03 02:17:23;;;;;;;1.27;0.63;;;;;;;0.82;46.21;98742.34;10668053;27;20098;-51
2021/03/03 02:22:33;;;;;;;2.63;0.60;;;;;;;0.83;45.81;98735.41;10649484;27;20062;-52
2021/03/03 02:27:36;;;;;;;3.35;0.82;;;;;;;0.83;46.19;98727.66;10666515;27;20042;-52
2021/03/03 02:32:40;;;;;;;1.52;0.55;;;;;;;0.82;46.16;98746.69;10667826;27;20125;-52
2021/03/03 02:37:43;;;;;;;4.90;0.95;;;;;;;0.78;46.37;98746.03;10663725;27;20042;-52
2021/03/03 02:42:46;;;;;;;1.80;0.50;;;;;;;0.76;46.21;98753.06;10663849;27;20050;-54
2021/03/03 02:47:49;;;;;;;2.08;0.85;;;;;;;0.74;46.52;98754.06;10664116;27;20046;-53
2021/03/03 02:52:53;;;;;;;1.33;0.50;;;;;;;0.71;46.31;98760.28;10667843;27;20043;-53
2021/03/03 02:57:58;;;;;;;1.88;0.80;;;;;;;0.68;46.38;98760.47;10664744;27;20035;-52
2021/03/03 03:03:10;;;;;;;3.75;1.48;;;;;;;0.62;46.56;98761.66;10664519;27;20047;-52
2021/03/03 03:08:14;;;;;;;2.60;0.68;;;;;;;0.57;46.68;98761.09;10670133;27;20087;-52
2021/03/03 03:13:19;;;;;;;2.92;1.13;;;;;;;0.58;46.19;98770.50;10672425;27;20149;-52
2021/03/03 03:18:27;;;;;;;2.40;0.57;;;;;;;0.56;46.77;98764.59;10671682;27;20042;-51
2021/03/03 03:23:30;;;;;;;1.88;0.70;;;;;;;0.62;46.57;98760.84;10672906;27;20042;-51
2021/03/03 03:28:36;;;;;;;1.75;0.60;;;;;;;0.63;46.52;98767.66;10672443;27;20054;-52
2021/03/03 03:33:38;;;;;;;3.95;0.70;;;;;;;0.59;46.15;98761.00;10677526;27;20046;-55
2021/03/03 03:38:40;;;;;;;1.35;0.57;;;;;;;0.57;46.27;98762.84;10672266;27;20049;-52
2021/03/03 03:43:44;;;;;;;1.48;0.50;;;;;;;0.62;46.54;98766.84;10651313;27;20069;-52
2021/03/03 03:48:46;;;;;;;2.67;0.82;;;;;;;0.54;46.53;98773.38;10667886;27;20443;-52
2021/03/03 03:53:48;;;;;;;1.35;0.50;;;;;;;0.50;46.41;98771.91;10670526;27;20046;-53
2021/03/03 03:58:51;;;;;;;1.05;0.40;;;;;;;0.47;46.18;98772.09;10668646;27;20359;-57
2021/03/03 04:03:52;;;;;;;1.77;0.60;;;;;;;0.43;45.85;98750.72;10668117;27;20055;-52
2021/03/03 04:08:54;;;;;;;4.35;0.90;;;;;;;0.32;46.39;98769.47;10667464;27;20137;-54
2021/03/03 04:13:57;;;;;;;2.20;0.70;;;;;;;0.31;46.31;98765.22;10668820;27;20082;-52
2021/03/03 04:18:58;;;;;;;2.00;0.73;;;;;;;0.28;46.47;98778.31;10665616;27;20054;-52
2021/03/03 04:24:00;;;;;;;1.90;0.50;;;;;;;0.35;46.13;98774.44;10670193;27;20621;-52
2021/03/03 04:29:03;;;;;;;1.13;0.50;;;;;;;0.39;46.15;98775.94;10669983;27;20551;-53
2021/03/03 04:34:05;;;;;;;6.90;0.60;;;;;;;0.55;45.91;98778.44;10673865;27;20055;-54
2021/03/03 04:39:06;;;;;;;2.10;0.75;;;;;;;0.74;46.37;98774.75;10658402;27;20042;-51
2021/03/03 04:44:09;;;;;;;2.22;0.70;;;;;;;2.18;47.37;98776.94;10674424;27;20058;-53
2021/03/03 04:49:11;;;;;;;1.63;0.63;;;;;;;4.01;45.58;98785.13;10673946;27;20464;-53
2021/03/03 04:54:12;;;;;;;1.80;0.80;;;;;;;5.40;43.71;98784.16;10672686;27;20494;-53
2021/03/03 04:59:15;;;;;;;1.65;0.60;;;;;;;6.67;41.70;98799.97;10672525;27;20145;-52
2021/03/03 05:04:17;;;;;;;2.67;0.70;;;;;;;7.84;39.90;98803.84;10672719;27;20057;-55
2021/03/03 05:09:18;;;;;;;10.48;1.10;;;;;;;9.16;38.82;98803.22;10673307;27;20110;-54
2021/03/03 05:14:21;;;;;;;2.38;0.80;;;;;;;10.61;36.52;98792.75;10677543;27;20059;-54
2021/03/03 05:19:23;;;;;;;3.13;0.63;;;;;;;11.96;35.65;98800.81;10656231;27;20051;-53
2021/03/03 05:24:24;;;;;;;2.63;0.70;;;;;;;12.81;33.57;98797.91;10670500;27;20145;-52
2021/03/03 05:29:27;;;;;;;2.67;0.73;;;;;;;14.07;31.71;98799.75;10669333;27;20051;-54
2021/03/03 05:34:29;;;;;;;2.35;0.80;;;;;;;15.08;30.85;98803.88;10672294;27;20042;-53
2021/03/03 05:39:33;;;;;;;3.05;0.88;;;;;;;16.23;28.11;98800.63;10676579;27;20047;-52
2021/03/03 05:44:37;;;;;;;5.25;0.90;;;;;;;17.36;27.05;98795.38;10669115;27;20146;-54
2021/03/03 05:49:42;;;;;;;;;;;;;;;18.18;29.17;98803.25;10670589;27;20059;-53
2021/03/03 05:54:45;;;;;;;2.63;1.05;;;;;;;18.79;25.93;98807.66;10669916;27;19979;-55
2021/03/03 05:59:47;;;;;;;;;;;;;;;19.85;25.57;98795.09;10652536;27;20383;-53
2021/03/03 06:04:50;;;;;;;3.60;1.27;;;;;;;20.69;24.17;98797.44;10651142;27;19922;-54
2021/03/03 06:09:51;;;;;;;2.70;0.80;;;;;;;21.48;23.52;98802.25;10669223;27;20070;-55
2021/03/03 06:14:54;;;;;;;2.55;0.80;;;;;;;22.94;20.60;98801.03;10668622;27;20406;-58
2021/03/03 06:19:55;;;;;;;;;;;;;;;23.12;21.16;98797.44;10651591;27;20070;-54
2021/03/03 06:24:58;;;;;;;4.75;0.90;;;;;;;23.34;19.93;98784.22;10649820;27;19927;-54
2021/03/03 06:30:10;;;;;;;2.83;0.80;;;;;;;23.74;17.72;98802.22;10667517;27;20046;-54
2021/03/03 06:35:12;;;;;;;2.57;0.80;;;;;;;24.50;18.92;98802.81;10651083;27;20150;-53
2021/03/03 06:40:15;;;;;;;2.47;0.77;;;;;;;25.99;17.73;98807.63;10677650;27;20042;-53
2021/03/03 06:45:28;;;;;;;3.33;0.73;;;;;;;26.72;15.63;98810.72;10669338;27;20043;-54
2021/03/03 06:50:34;;;;;;;2.97;0.80;;;;;;;28.40;15.41;98808.84;10669735;27;20054;-57
2021/03/03 06:55:47;;;;;;;2.80;0.90;;;;;;;28.12;13.56;98812.03;10667457;27;20142;-55
2021/03/03 07:00:49;;;;;;;2.83;1.00;;;;;;;27.79;14.44;98819.50;10649976;27;20435;-54
2021/03/03 07:05:51;;;;;;;2.70;0.88;;;;;;;28.68;13.92;98815.63;10673629;27;20434;-55
2021/03/03 07:10:53;;;;;;;4.03;0.90;;;;;;;27.86;12.82;98809.25;10667760;27;20378;-53
2021/03/03 07:16:03;;;;;;;5.13;0.90;;;;;;;27.75;12.68;98813.78;10668332;27;20056;-54
2021/03/03 07:21:06;;;;;;;3.40;1.10;;;;;;;29.16;12.12;98801.81;10650165;27;20073;-55
2021/03/03 07:26:09;;;;;;;3.85;1.50;;;;;;;29.77;11.71;98807.03;10680537;27;20043;-57
2021/03/03 07:31:13;;;;;;;3.55;1.08;;;;;;;31.07;10.81;98803.13;10688025;27;20057;-55
2021/03/03 07:36:16;;;;;;;3.75;0.90;;;;;;;30.98;10.80;98807.56;10668186;27;20053;-55
2021/03/03 07:41:18;;;;;;;2.67;0.98;;;;;;;32.01;10.18;98806.09;10667715;27;20058;-55
2021/03/03 07:46:22;;;;;;;3.00;0.70;;;;;;;33.28;9.49;98794.22;10668669;27;20046;-54
2021/03/03 07:51:24;;;;;;;3.78;0.73;;;;;;;33.84;9.51;98790.38;10656059;27;20065;-55
2021/03/03 07:56:27;;;;;;;2.90;0.70;;;;;;;34.45;9.13;98795.53;10674178;27;20043;-55
2021/03/03 08:01:31;;;;;;;3.03;0.65;;;;;;;34.82;8.23;98780.69;10673570;27;20057;-54
2021/03/03 08:06:35;;;;;;;3.30;0.80;;;;;;;33.12;8.22;98790.19;10673603;27;20461;-54
2021/03/03 08:11:39;;;;;;;3.70;0.85;;;;;;;32.96;8.90;98795.88;10675217;27;20055;-56
2021/03/03 08:16:54;;;;;;;3.95;0.63;;;;;;;33.75;8.62;98797.66;10673172;27;20110;-56
2021/03/03 08:21:56;;;;;;;2.85;0.70;;;;;;;35.38;7.91;98798.31;10673950;27;20065;-55
2021/03/03 08:26:58;;;;;;;3.58;1.05;;;;;;;35.66;7.66;98787.97;10682245;27;20340;-55
2021/03/03 08:32:22;;;;;;;2.97;0.82;;;;;;;35.57;7.71;98794.56;10674299;27;20066;-55
2021/03/03 08:37:29;;;;;;;2.60;0.80;;;;;;;36.76;7.22;98796.81;10673322;27;20075;-55
2021/03/03 08:42:36;;;;;;;7.50;1.48;;;;;;;36.98;6.84;98793.06;10674562;27;20130;-55
2021/03/03 08:47:56;;;;;;;5.10;1.10;;;;;;;35.39;7.61;98786.25;10674683;27;20137;-55
2021/03/03 08:53:24;;;;;;;4.75;1.38;;;;;;;31.71;8.75;98779.31;10674062;27;20051;-55
2021/03/03 08:59:02;;;;;;;3.40;1.20;;;;;;;28.68;10.60;98798.59;10653189;27;20053;-55
2021/03/03 09:04:13;;;;;;;4.47;1.30;;;;;;;27.31;11.04;98792.56;10672533;27;20091;-54
2021/03/03 09:09:22;;;;;;;4.40;1.40;;;;;;;25.13;12.14;98792.81;10671433;27;20062;-54
2021/03/03 09:14:28;;;;;;;4.50;1.35;;;;;;;23.96;13.28;98785.47;10671442;27;20047;-53
2021/03/03 09:19:32;;;;;;;3.93;1.57;;;;;;;24.16;12.86;98776.97;10671299;27;20150;-54
2021/03/03 09:24:33;;;;;;;3.92;1.20;;;;;;;24.68;12.73;98768.72;10670777;27;20134;-52
2021/03/03 09:29:37;;;;;;;4.75;1.30;;;;;;;22.15;14.34;98762.88;10675047;27;20043;-54
2021/03/03 09:34:45;;;;;;;4.28;1.35;;;;;;;20.86;14.98;98767.50;10675824;27;20172;-60
2021/03/03 09:39:54;;;;;;;4.80;1.52;;;;;;;20.33;15.26;98765.25;10675720;27;20077;-54
2021/03/03 09:44:58;;;;;;;4.30;1.30;;;;;;;19.20;16.09;98758.59;10673843;27;20195;-53
2021/03/03 09:50:02;;;;;;;3.58;1.00;;;;;;;18.97;16.68;98752.94;10674030;27;20142;-54
2021/03/03 09:55:07;;;;;;;4.43;1.60;;;;;;;18.83;17.44;98742.28;10674666;27;20042;-54
2021/03/03 10:00:12;;;;;;;4.30;1.27;;;;;;;18.39;17.54;98738.41;10677536;27;20034;-53
2021/03/03 10:05:17;;;;;;;4.22;1.30;;;;;;;16.56;19.02;98729.31;10676337;27;20047;-57
2021/03/03 10:10:20;;;;;;;5.78;1.30;;;;;;;15.82;19.81;98742.06;10673089;27;20061;-54
2021/03/03 10:15:24;;;;;;;5.13;1.38;;;;;;;15.47;20.23;98739.22;10671773;27;20042;-53
2021/03/03 10:20:35;;;;;;;6.50;1.92;;;;;;;14.84;20.65;98722.09;10671300;27;20111;-55
2021/03/03 10:25:39;;;;;;;3.45;1.20;;;;;;;14.39;21.20;98729.94;10675088;27;20054;-52
2021/03/03 10:30:42;;;;;;;3.15;1.00;;;;;;;13.89;21.66;98722.59;10668270;27;20519;-54
2021/03/03 10:35:51;;;;;;;2.20;0.70;;;;;;;13.68;22.30;98716.09;10667429;27;20102;-54
2021/03/03 10:40:56;;;;;;;4.63;1.10;;;;;;;13.40;22.41;98722.88;10668236;27;20051;-52
2021/03/03 10:46:11;;;;;;;4.05;0.93;;;;;;;13.07;22.77;98712.41;10666760;27;20057;-52
2021/03/03 10:51:16;;;;;;;4.55;1.65;;;;;;;12.44;23.56;98721.97;10667003;27;20543;-52
2021/03/03 10:56:22;;;;;;;2.55;0.80;;;;;;;12.20;23.73;98712.28;10667042;27;20057;-53
2021/03/03 11:01:25;;;;;;;2.75;1.13;;;;;;;12.18;23.85;98698.44;10672988;27;20058;-54
2021/03/03 11:06:29;;;;;;;2.97;0.80;;;;;;;11.74;24.32;98680.28;10668794;27;20129;-54
2021/03/03 11:11:31;;;;;;;2.58;0.80;;;;;;;11.05;25.07;98698.88;10651458;27;20080;-60
2021/03/03 11:16:32;;;;;;;2.72;0.73;;;;;;;10.60;25.61;98684.19;10668895;27;20043;-53
2021/03/03 11:21:35;;;;;;;3.90;0.88;;;;;;;10.34;26.06;98688.59;10650763;27;20459;-60
2021/03/03 11:26:38;;;;;;;3.38;1.08;;;;;;;10.45;26.10;98696.25;10675985;27;20463;-52
2021/03/03 11:31:42;;;;;;;3.00;1.07;;;;;;;10.36;26.19;98687.47;10679599;27;20197;-59
2021/03/03 11:36:44;;;;;;;3.53;1.00;;;;;;;10.24;26.62;98693.94;10662264;27;20134;-54
2021/03/03 11:41:46;;;;;;;2.92;0.90;;;;;;;10.35;26.49;98695.53;10675496;27;20051;-54
2021/03/03 11:46:48;;;;;;;5.20;0.85;;;;;;;10.25;26.54;98686.88;10675084;27;20068;-53
2021/03/03 11:51:50;;;;;;;5.38;1.70;;;;;;;10.00;27.07;98684.06;10675030;27;20050;-54
2021/03/03 11:56:52;;;;;;;3.95;1.02;;;;;;;10.09;27.52;98690.19;10674740;27;20592;-52
2021/03/03 12:01:55;;;;;;;2.63;0.80;;;;;;;9.96;27.47;98682.72;10674747;27;20069;-52
2021/03/03 12:06:57;;;;;;;3.10;1.00;;;;;;;9.78;27.91;98669.59;10675460;27;20042;-54
2021/03/03 12:11:59;;;;;;;4.65;1.15;;;;;;;9.81;27.99;98658.81;10674983;27;20162;-52
2021/03/03 12:17:00;;;;;;;3.85;0.90;;;;;;;9.76;28.12;98647.09;10673994;27;20470;-53
2021/03/03 12:22:03;;;;;;;4.80;1.25;;;;;;;9.68;28.33;98655.75;10678201;27;20094;-52
2021/03/03 12:27:05;;;;;;;4.22;1.25;;;;;;;9.56;28.36;98647.28;10675159;27;20056;-52
2021/03/03 12:32:07;;;;;;;3.28;1.10;;;;;;;9.33;28.63;98635.56;10675155;27;20515;-53
2021/03/03 12:37:11;;;;;;;2.97;0.90;;;;;;;9.18;28.92;98628.22;10674698;27;20061;-52
2021/03/03 12:42:12;;;;;;;2.63;0.80;;;;;;;9.11;29.00;98629.78;10673351;27;20053;-51
2021/03/03 12:47:14;;;;;;;2.80;0.88;;;;;;;8.79;29.16;98626.78;10674676;27;20046;-53
2021/03/03 12:52:17;;;;;;;4.22;0.95;;;;;;;8.47;29.59;98597.44;10672986;27;20089;-52
2021/03/03 12:57:18;;;;;;;6.28;1.40;;;;;;;8.25;30.06;98605.59;10673343;27;20039;-52
2021/03/03 13:02:20;;;;;;;4.93;1.58;;;;;;;8.24;30.43;98596.91;10675655;27;20547;-57
2021/03/03 13:07:22;;;;;;;2.50;0.77;;;;;;;8.33;30.21;98599.66;10675897;27;20038;-52
2021/03/03 13:12:24;;;;;;;3.38;0.90;;;;;;;8.52;30.18;98599.59;10673397;27;20042;-51
2021/03/03 13:17:26;;;;;;;2.75;1.00;;;;;;;8.57;30.13;98607.84;10672157;27;20058;-53
2021/03/03 13:22:28;;;;;;;3.75;1.30;;;;;;;8.65;30.09;98600.13;10672269;27;20070;-53
2021/03/03 13:27:30;;;;;;;5.07;1.02;;;;;;;8.55;30.38;98578.34;10653422;27;20035;-54
2021/03/03 13:32:32;;;;;;;2.85;0.93;;;;;;;8.50;30.71;98580.59;10671914;27;20042;-54
2021/03/03 13:37:35;;;;;;;3.92;1.00;;;;;;;8.25;30.86;98571.56;10674102;27;20042;-63
2021/03/03 13:42:37;;;;;;;3.53;0.80;;;;;;;8.28;30.76;98569.50;10672713;27;20137;-53
2021/03/03 13:47:38;;;;;;;4.38;1.20;;;;;;;8.34;30.75;98569.88;10670490;27;20046;-52
2021/03/03 13:52:41;;;;;;;3.17;0.73;;;;;;;8.28;30.96;98560.78;10652798;27;20122;-52
2021/03/03 13:57:43;;;;;;;3.60;0.98;;;;;;;8.14;30.80;98551.63;10670056;27;20039;-53
2021/03/03 14:02:45;;;;;;;2.35;0.80;;;;;;;7.99;31.22;98555.66;10671935;27;20360;-53
2021/03/03 14:07:47;;;;;;;5.38;0.80;;;;;;;7.90;31.04;98535.59;10670150;27;20038;-52
2021/03/03 14:12:49;;;;;;;2.67;0.80;;;;;;;7.77;31.30;98541.97;10671378;27;20046;-51
2021/03/03 14:17:51;;;;;;;5.75;1.08;;;;;;;7.61;31.30;98546.94;10669642;27;20039;-54
2021/03/03 14:22:53;;;;;;;4.35;1.10;;;;;;;7.41;31.52;98530.44;10670013;27;20062;-52
2021/03/03 14:27:55;;;;;;;3.17;0.85;;;;;;;7.43;31.69;98525.91;10669497;27;20050;-53
2021/03/03 14:32:57;;;;;;;4.13;0.90;;;;;;;7.40;31.98;98522.75;10668896;27;20061;-55
2021/03/03 14:37:59;;;;;;;2.63;0.95;;;;;;;7.37;32.02;98509.00;10670811;27;20393;-53
2021/03/03 14:43:01;;;;;;;4.53;1.03;;;;;;;7.23;31.96;98512.00;10669680;27;20061;-54
2021/03/03 14:48:03;;;;;;;4.38;1.10;;;;;;;7.18;32.20;98501.16;10669855;27;20043;-57
2021/03/03 14:53:06;;;;;;;5.82;1.10;;;;;;;7.07;32.48;98496.91;10670422;27;20122;-53
2021/03/03 14:58:08;;;;;;;3.27;1.00;;;;;;;6.99;32.62;98502.00;10672353;27;20497;-53
2021/03/03 15:03:10;;;;;;;3.75;0.85;;;;;;;6.92;32.40;98495.66;10677778;27;20080;-52
2021/03/03 15:08:12;;;;;;;5.00;1.23;;;;;;;6.76;32.79;98488.38;10677245;27;20043;-53
2021/03/03 15:13:14;;;;;;;5.35;1.20;;;;;;;6.58;32.55;98475.16;10677732;27;20051;-51
2021/03/03 15:18:16;;;;;;;4.70;1.08;;;;;;;6.41;33.07;98484.47;10677934;27;20055;-54
2021/03/03 15:23:18;;;;;;;5.32;1.20;;;;;;;6.30;33.08;98475.91;10678158;27;20069;-56
2021/03/03 15:28:20;;;;;;;5.75;1.17;;;;;;;6.26;33.26;98464.94;10664528;27;20081;-50
2021/03/03 15:33:22;;;;;;;3.95;0.93;;;;;;;6.19;33.24;98471.66;10618640;27;20050;-53
2021/03/03 15:38:25;;;;;;;4.82;1.10;;;;;;;6.15;33.39;98465.03;10657437;27;20081;-55
2021/03/03 15:43:26;;;;;;;5.70;2.25;;;;;;;6.16;33.26;98464.09;10673411;27;20060;-51
2021/03/03 15:48:28;;;;;;;3.97;1.02;;;;;;;6.07;33.88;98464.88;10675209;27;20048;-50
2021/03/03 15:53:31;;;;;;;3.30;1.20;;;;;;;5.93;34.27;98440.78;10657643;27;20046;-51
2021/03/03 15:58:33;;;;;;;3.67;1.10;;;;;;;5.81;34.26;98444.41;10675576;27;20087;-53
2021/03/03 16:03:34;;;;;;;3.90;1.13;;;;;;;5.73;34.34;98441.66;10674589;27;20141;-54
2021/03/03 16:08:37;;;;;;;3.78;1.52;;;;;;;5.66;34.33;98451.75;10674601;27;20039;-54
2021/03/03 16:13:38;;;;;;;4.50;1.20;;;;;;;5.57;34.71;98441.28;10676692;27;20051;-50
2021/03/03 16:18:40;;;;;;;3.65;1.27;;;;;;;5.46;34.52;98440.44;10642731;27;20130;-53
2021/03/03 16:23:43;;;;;;;3.13;1.05;;;;;;;5.38;34.85;98431.59;10632068;27;20092;-50
2021/03/03 16:28:44;;;;;;;2.28;0.88;;;;;;;5.29;34.88;98433.19;10631218;27;20134;-51
2021/03/03 16:33:46;;;;;;;7.03;1.92;;;;;;;5.20;35.58;98418.31;10629537;27;20525;-51
2021/03/03 16:38:49;;;;;;;5.68;1.17;;;;;;;5.15;35.36;98416.13;10629175;27;20051;-51
2021/03/03 16:43:52;;;;;;;4.25;1.27;;;;;;;5.12;35.48;98418.97;10612692;27;20455;-51
2021/03/03 16:48:54;;;;;;;4.43;1.60;;;;;;;5.13;35.55;98401.56;10630638;27;20092;-51
2021/03/03 16:53:57;;;;;;;3.88;1.00;;;;;;;5.10;35.53;98402.63;10637780;27;20043;-51
2021/03/03 16:58:59;;;;;;;4.63;1.52;;;;;;;5.11;35.67;98398.25;10670289;27;20409;-52
2021/03/03 17:04:03;;;;;;;3.60;1.30;;;;;;;5.10;36.03;98392.22;10671582;27;20047;-51
2021/03/03 17:09:07;;;;;;;7.82;1.65;;;;;;;5.08;36.20;98389.75;10654087;27;20043;-52
2021/03/03 17:14:09;;;;;;;4.90;1.20;;;;;;;5.04;35.90;98383.13;10630914;27;20066;-53
2021/03/03 17:19:11;;;;;;;4.90;1.35;;;;;;;4.99;36.53;98380.09;10628674;27;20124;-51
2021/03/03 17:24:14;;;;;;;4.22;1.10;;;;;;;4.93;36.65;98364.19;10628868;27;20083;-52
2021/03/03 17:29:16;;;;;;;5.00;1.23;;;;;;;4.87;36.91;98375.09;10629372;27;20050;-59
2021/03/03 17:34:17;;;;;;;4.10;1.50;;;;;;;4.79;37.10;98367.91;10633494;27;20051;-51
2021/03/03 17:39:20;;;;;;;3.50;1.20;;;;;;;4.77;37.07;98364.59;10627990;27;20047;-52
2021/03/03 17:44:22;;;;;;;4.60;1.10;;;;;;;4.71;36.71;98354.69;10654148;27;20489;-54
2021/03/03 17:49:23;;;;;;;6.15;1.20;;;;;;;4.70;37.19;98347.84;10669159;27;20133;-50
2021/03/03 17:54:26;;;;;;;4.88;1.30;;;;;;;4.64;37.21;98343.13;10651654;27;20043;-52
2021/03/03 17:59:28;;;;;;;4.47;1.30;;;;;;;4.54;36.86;98341.28;10670068;27;20074;-50
2021/03/03 18:04:30;;;;;;;4.57;1.20;;;;;;;4.49;37.15;98329.59;10668584;27;20051;-52
2021/03/03 18:09:33;;;;;;;3.88;1.48;;;;;;;4.40;37.59;98320.78;10669993;27;20047;-53
2021/03/03 18:14:34;;;;;;;3.38;1.30;;;;;;;4.30;37.92;98317.28;10669664;27;20084;-51
2021/03/03 18:19:36;;;;;;;3.97;1.20;;;;;;;4.28;37.65;98312.22;10668283;27;20050;-52
2021/03/03 18:24:39;;;;;;;4.53;1.20;;;;;;;4.24;37.85;98300.38;10668323;27;20057;-51
2021/03/03 18:29:41;;;;;;;5.18;1.38;;;;;;;4.21;37.99;98298.03;10666996;27;20054;-53
2021/03/03 18:34:42;;;;;;;5.28;1.00;;;;;;;4.15;38.07;98281.16;10648885;27;20042;-52
2021/03/03 18:39:45;;;;;;;3.72;0.95;;;;;;;4.07;38.41;98287.94;10667881;27;20047;-52
2021/03/03 18:44:51;;;;;;;4.53;1.75;;;;;;;4.07;38.51;98275.75;10666842;27;20046;-52
2021/03/03 18:49:53;;;;;;;4.40;1.23;;;;;;;4.03;38.46;98269.13;10668177;27;20038;-51
2021/03/03 18:54:55;;;;;;;7.43;1.63;;;;;;;3.97;38.80;98259.25;10667507;27;20057;-51
2021/03/03 19:00:00;;;;;;;5.18;1.40;;;;;;;4.01;38.60;98257.25;10649600;27;20059;-51
2021/03/03 19:05:02;;;;;;;3.80;1.23;;;;;;;3.98;38.85;98245.31;10666605;27;20074;-51
2021/03/03 19:10:06;;;;;;;5.57;1.63;;;;;;;4.00;38.69;98246.00;10667234;27;20402;-52
2021/03/03 19:15:09;;;;;;;5.80;1.30;;;;;;;3.96;38.58;98234.19;10668451;27;20047;-51
2021/03/03 19:20:11;;;;;;;6.25;1.40;;;;;;;3.97;38.71;98219.41;10667139;27;20528;-51
2021/03/03 19:25:14;;;;;;;6.15;1.40;;;;;;;4.02;39.04;98215.50;10667328;27;20149;-52
2021/03/03 19:30:17;;;;;;;3.90;1.40;;;;;;;4.08;39.13;98202.00;10668251;27;20445;-50
2021/03/03 19:35:19;;;;;;;6.13;1.45;;;;;;;4.23;39.14;98188.69;10641497;27;20111;-56
2021/03/03 19:40:22;;;;;;;6.63;1.95;;;;;;;4.37;39.11;98193.53;10627917;27;20051;-51
2021/03/03 19:45:24;;;;;;;4.05;1.10;;;;;;;4.44;39.10;98175.66;10662062;27;20039;-51
2021/03/03 19:50:26;;;;;;;5.18;1.42;;;;;;;4.56;39.24;98159.81;10675074;27;20039;-51
2021/03/03 19:55:29;;;;;;;2.75;1.00;;;;;;;4.71;39.03;98152.50;10675347;27;20155;-51
2021/03/03 20:00:31;;;;;;;5.57;1.85;;;;;;;4.83;39.28;98155.78;10676907;27;20093;-52
2021/03/03 20:05:32;;;;;;;3.60;1.35;;;;;;;4.90;38.89;98138.72;10674834;27;20046;-51
2021/03/03 20:10:35;;;;;;;6.15;1.17;;;;;;;4.95;39.00;98123.50;10674352;27;20062;-52
2021/03/03 20:15:37;;;;;;;5.43;1.60;;;;;;;5.00;39.43;98125.69;10673204;27;20149;-49
2021/03/03 20:20:39;;;;;;;4.80;1.13;;;;;;;5.12;39.27;98110.78;10673680;27;20145;-57
2021/03/03 20:25:42;;;;;;;6.35;1.70;;;;;;;5.16;39.25;98104.34;10648654;27;20107;-50
2021/03/03 20:30:43;;;;;;;3.47;1.30;;;;;;;5.22;39.46;98098.59;10634284;27;20054;-51
2021/03/03 20:35:46;;;;;;;4.28;1.50;;;;;;;5.28;39.13;98092.84;10630086;27;20047;-51
2021/03/03 20:40:49;;;;;;;3.17;1.05;;;;;;;5.31;39.59;98087.34;10631475;27;20455;-51
2021/03/03 20:45:51;;;;;;;5.72;1.70;;;;;;;5.36;39.34;98077.34;10669403;27;20042;-53
2021/03/03 20:50:52;;;;;;;4.18;1.10;;;;;;;5.39;39.40;98064.03;10655577;27;20045;-51
2021/03/03 20:55:55;;;;;;;4.28;1.25;;;;;;;5.42;39.23;98052.50;10655889;27;20053;-53
2021/03/03 21:00:57;;;;;;;4.25;1.20;;;;;;;5.41;39.30;98032.63;10653947;27;20547;-50
2021/03/03 21:05:58;;;;;;;4.25;1.33;;;;;;;5.33;39.53;98033.31;10676109;27;20078;-55
2021/03/03 21:11:01;;;;;;;3.97;1.00;;;;;;;5.34;39.40;98031.53;10657406;27;20057;-54
2021/03/03 21:16:04;;;;;;;4.40;1.17;;;;;;;5.23;39.34;98022.06;10672430;27;20050;-51
2021/03/03 21:21:13;;;;;;;3.85;1.10;;;;;;;5.17;40.06;98004.38;10654552;27;20058;-50
2021/03/03 21:26:16;;;;;;;5.60;1.50;;;;;;;5.16;40.01;97995.75;10652723;27;20129;-58
2021/03/03 21:31:18;;;;;;;5.75;1.48;;;;;;;5.17;40.16;97979.19;10670072;27;20050;-52
2021/03/03 21:36:20;;;;;;;7.68;1.77;;;;;;;5.15;40.05;97968.06;10651642;27;20107;-52
2021/03/03 21:41:23;;;;;;;4.78;1.75;;;;;;;5.15;40.05;97967.25;10670006;27;20111;-51
2021/03/03 21:46:24;;;;;;;3.92;1.35;;;;;;;5.28;40.15;97954.75;10669427;27;20057;-51
2021/03/03 21:51:28;;;;;;;5.00;0.88;;;;;;;5.37;40.26;97938.28;10651678;27;20064;-53
2021/03/03 21:56:31;;;;;;;5.65;1.73;;;;;;;5.38;40.15;97939.09;10651391;27;20054;-53
2021/03/03 22:01:33;;;;;;;4.32;1.02;;;;;;;5.40;40.51;97935.38;10668866;27;20047;-52
2021/03/03 22:06:34;;;;;;;3.25;1.00;;;;;;;5.52;40.29;97929.03;10671194;27;20133;-60
2021/03/03 22:11:37;;;;;;;4.70;1.25;;;;;;;5.53;40.22;97911.59;10669680;27;20050;-57
2021/03/03 22:16:39;;;;;;;3.30;0.90;;;;;;;5.45;40.46;97899.31;10669498;27;20073;-52
2021/03/03 22:21:40;;;;;;;4.55;1.20;;;;;;;5.24;40.49;97885.66;10667995;27;20050;-51
2021/03/03 22:26:43;;;;;;;2.35;1.00;;;;;;;5.15;40.71;97883.91;10667822;27;20142;-52
2021/03/03 22:31:45;;;;;;;3.22;1.00;;;;;;;5.10;41.27;97878.28;10667556;27;20051;-52
2021/03/03 22:36:47;;;;;;;5.35;0.95;;;;;;;5.17;41.65;97867.16;10649716;27;20471;-52
2021/03/03 22:41:50;;;;;;;4.03;1.00;;;;;;;5.19;41.55;97859.19;10668545;27;20529;-52
2021/03/03 22:46:52;;;;;;;4.18;0.98;;;;;;;5.34;41.35;97849.97;10667968;27;20043;-51
2021/03/03 22:51:54;;;;;;;4.18;0.90;;;;;;;5.37;41.30;97846.25;10667128;27;20050;-52
2021/03/03 22:56:56;;;;;;;1.85;0.90;;;;;;;5.37;41.99;97838.44;10671755;27;20042;-56
2021/03/03 23:01:58;;;;;;;4.13;1.45;;;;;;;5.44;41.49;97842.91;10667765;27;20101;-52
2021/03/03 23:06:59;;;;;;;2.70;0.85;;;;;;;5.47;41.75;97837.41;10663807;27;20078;-53
2021/03/03 23:12:02;;;;;;;3.05;0.88;;;;;;;5.47;42.08;97837.41;10668918;27;20054;-51
2021/03/03 23:17:04;;;;;;;4.50;1.15;;;;;;;5.54;41.70;97828.06;10651117;27;20066;-53
2021/03/03 23:22:07;;;;;;;3.20;1.10;;;;;;;5.61;42.08;97811.84;10678295;27;20088;-51
2021/03/03 23:27:10;;;;;;;4.00;1.00;;;;;;;5.69;41.61;97814.53;10674965;27;20073;-52
2021/03/03 23:32:12;;;;;;;3.20;0.90;;;;;;;5.71;41.47;97799.59;10675592;27;20061;-53
2021/03/03 23:37:13;;;;;;;4.80;1.17;;;;;;;5.71;41.83;97783.94;10676107;27;20042;-50
2021/03/03 23:42:16;;;;;;;4.97;0.85;;;;;;;5.73;41.99;97774.19;10673731;27;20508;-52